Time;durP1;ratioP1;P1;durP2;ratioP2;P2;SDS_P1;SDS_P2;PMS_P1;PMS_P2;Temp;Humidity;BMP_temperature;BMP_pressure;BME280_temperature;BME280_humidity;BME280_pressure;Samples;Min_cycle;Max_cycle;Signal;HPM_P1;HPM_P2
2023/07/22 00:01:14;;;;;;;12.00;5.05;;;;;;;17.64;48.02;101104.75;5102225;28;20059;-64
2023/07/22 00:03:42;;;;;;;10.32;4.88;;;;;;;17.62;47.82;101103.50;5101653;28;20044;-61
2023/07/22 00:06:11;;;;;;;7.18;4.40;;;;;;;17.84;47.61;101105.75;5106647;28;20048;-60
2023/07/22 00:08:38;;;;;;;8.82;4.45;;;;;;;17.84;47.59;101109.34;5094676;28;20070;-61
2023/07/22 00:11:06;;;;;;;8.23;4.90;;;;;;;17.82;47.77;101099.72;5113315;28;20426;-60
2023/07/22 00:13:34;;;;;;;7.72;4.82;;;;;;;18.10;47.20;101091.41;5077661;28;20059;-62
2023/07/22 00:16:04;;;;;;;7.65;4.68;;;;;;;17.95;47.39;101088.19;5113031;28;20055;-61
2023/07/22 00:18:32;;;;;;;11.73;4.47;;;;;;;17.90;47.49;101091.19;5109517;28;20066;-61
2023/07/22 00:20:59;;;;;;;10.57;4.45;;;;;;;17.83;47.57;101087.41;5087321;28;20055;-61
2023/07/22 00:23:27;;;;;;;7.88;4.68;;;;;;;17.82;47.63;101092.16;5110958;28;20051;-60
2023/07/22 00:25:54;;;;;;;8.35;4.32;;;;;;;17.32;48.73;101090.97;5107690;28;20390;-60
2023/07/22 00:28:22;;;;;;;8.15;4.68;;;;;;;17.50;48.89;101090.41;5107687;28;20052;-61
2023/07/22 00:30:50;;;;;;;8.40;4.40;;;;;;;17.78;47.79;101093.25;5106031;28;20674;-61
2023/07/22 00:33:17;;;;;;;9.05;4.70;;;;;;;17.81;48.12;101090.56;5088750;28;20047;-61
2023/07/22 00:35:50;;;;;;;7.82;4.32;;;;;;;17.72;48.27;101095.47;5082966;28;20648;-61
2023/07/22 00:38:18;;;;;;;9.20;4.70;;;;;;;17.76;48.19;101090.81;5111479;28;20469;-61
2023/07/22 00:40:46;;;;;;;8.57;4.45;;;;;;;17.95;47.98;101088.19;5116889;28;20048;-62
2023/07/22 00:43:14;;;;;;;8.52;4.40;;;;;;;17.95;47.78;101087.38;5115229;28;20039;-61
2023/07/22 00:45:41;;;;;;;14.60;4.82;;;;;;;17.71;48.11;101088.25;5094015;28;20044;-61
2023/07/22 00:48:09;;;;;;;8.95;4.43;;;;;;;17.93;47.84;101082.16;5110193;28;20043;-61
2023/07/22 00:50:38;;;;;;;9.63;4.75;;;;;;;17.86;47.89;101072.78;5113794;28;20419;-61
2023/07/22 00:53:05;;;;;;;10.90;4.47;;;;;;;18.02;48.15;101073.66;5107073;28;20055;-63
2023/07/22 00:55:33;;;;;;;8.63;5.15;;;;;;;18.22;47.32;101074.59;5111703;28;21090;-64
2023/07/22 00:58:01;;;;;;;9.25;4.85;;;;;;;18.59;46.17;101073.25;5110271;28;20048;-61
2023/07/22 01:00:28;;;;;;;10.57;4.60;;;;;;;18.37;46.64;101065.47;5086451;28;20052;-60
2023/07/22 01:02:55;;;;;;;10.07;4.55;;;;;;;18.26;47.16;101070.75;5094823;28;20407;-60
2023/07/22 01:05:24;;;;;;;11.13;5.00;;;;;;;18.27;46.98;101068.78;5093764;28;20054;-58
2023/07/22 01:07:52;;;;;;;9.43;4.47;;;;;;;18.20;47.45;101065.78;5106314;28;20044;-61
2023/07/22 01:10:21;;;;;;;8.20;4.43;;;;;;;18.09;47.55;101068.28;5105992;28;20071;-62
2023/07/22 01:12:49;;;;;;;9.07;4.75;;;;;;;17.96;48.05;101072.25;5081369;28;20070;-61
2023/07/22 01:15:16;;;;;;;9.32;4.43;;;;;;;18.25;47.50;101062.75;5115743;28;20051;-61
2023/07/22 01:17:44;;;;;;;11.02;4.63;;;;;;;18.50;47.11;101069.81;5115721;28;20513;-60
2023/07/22 01:20:13;;;;;;;11.48;4.72;;;;;;;18.68;46.65;101069.13;5114004;28;20649;-63
2023/07/22 01:22:42;;;;;;;11.68;4.75;;;;;;;18.80;46.34;101057.06;5079949;28;20051;-63
2023/07/22 01:25:09;;;;;;;7.45;4.57;;;;;;;18.63;46.54;101057.41;5124377;27;20051;-62
2023/07/22 01:27:36;;;;;;;10.65;5.00;;;;;;;18.24;47.34;101056.34;5077003;28;20717;-62
2023/07/22 01:30:06;;;;;;;6.90;4.68;;;;;;;18.23;47.63;101057.53;5097565;28;20058;-63
2023/07/22 01:32:34;;;;;;;8.82;5.03;;;;;;;18.35;47.28;101045.47;5115464;28;20410;-61
2023/07/22 01:35:01;;;;;;;9.57;4.88;;;;;;;18.45;47.17;101050.56;5097585;28;20058;-62
2023/07/22 01:37:28;;;;;;;11.75;5.15;;;;;;;18.23;47.61;101048.34;5115654;28;20059;-60
2023/07/22 01:39:57;;;;;;;13.88;5.63;;;;;;;17.99;48.16;101044.50;5113964;28;20060;-60
2023/07/22 01:42:25;;;;;;;8.32;5.25;;;;;;;18.02;48.26;101047.72;5077864;28;20048;-64
2023/07/22 01:44:53;;;;;;;11.93;5.63;;;;;;;18.05;48.46;101047.03;5084612;28;20050;-64
2023/07/22 01:47:20;;;;;;;11.75;5.80;;;;;;;18.02;48.48;101045.78;5113127;28;20054;-62
2023/07/22 01:49:48;;;;;;;8.80;5.60;;;;;;;18.23;48.28;101039.97;5110874;28;20047;-64
2023/07/22 01:52:15;;;;;;;9.60;5.47;;;;;;;18.11;49.04;101045.59;5089339;28;20036;-63
2023/07/22 01:54:42;;;;;;;10.40;5.03;;;;;;;18.31;48.38;101044.56;5108867;28;20052;-61
2023/07/22 01:57:10;;;;;;;10.02;4.72;;;;;;;18.21;48.37;101045.91;5109431;28;20530;-60
2023/07/22 01:59:37;;;;;;;8.52;4.82;;;;;;;18.23;48.61;101051.13;5109846;28;20074;-61
2023/07/22 02:02:05;;;;;;;11.52;4.72;;;;;;;18.31;48.69;101047.34;5089389;28;20172;-61
2023/07/22 02:04:32;;;;;;;9.50;5.03;;;;;;;18.32;48.42;101043.41;5105372;28;20051;-61
2023/07/22 02:07:00;;;;;;;7.28;4.70;;;;;;;18.23;49.02;101046.38;5095803;28;20047;-61
2023/07/22 02:09:28;;;;;;;7.30;4.82;;;;;;;18.24;48.29;101039.59;5082624;28;20051;-61
2023/07/22 02:11:56;;;;;;;9.27;4.82;;;;;;;18.24;48.77;101052.72;5068399;28;20057;-60
2023/07/22 02:14:24;;;;;;;10.35;5.10;;;;;;;18.21;49.01;101039.50;5087830;28;20040;-63
2023/07/22 02:16:51;;;;;;;9.35;5.20;;;;;;;18.05;49.18;101045.06;5102371;28;20548;-63
2023/07/22 02:19:19;;;;;;;10.45;5.10;;;;;;;18.05;49.43;101044.22;5092938;28;20055;-63
2023/07/22 02:21:46;;;;;;;10.20;5.20;;;;;;;18.15;49.15;101052.09;5072418;28;20078;-63
2023/07/22 02:24:15;;;;;;;8.20;4.45;;;;;;;18.16;49.24;101050.94;5109036;28;20039;-64
2023/07/22 02:26:42;;;;;;;7.30;4.80;;;;;;;18.30;48.65;101043.78;5090426;28;20054;-64
2023/07/22 02:29:09;;;;;;;9.60;5.10;;;;;;;17.97;49.46;101051.59;5091889;28;20752;-64
2023/07/22 02:31:37;;;;;;;7.63;4.90;;;;;;;17.79;49.74;101047.47;5109557;28;20051;-63
2023/07/22 02:34:04;;;;;;;8.32;4.43;;;;;;;17.89;50.03;101046.97;5079280;28;20055;-64
2023/07/22 02:36:32;;;;;;;7.95;5.18;;;;;;;17.85;49.85;101041.28;5097554;28;20097;-63
2023/07/22 02:38:59;;;;;;;11.35;4.80;;;;;;;17.82;49.94;101049.56;5095239;28;20051;-64
2023/07/22 02:41:26;;;;;;;7.88;4.93;;;;;;;18.05;49.45;101044.22;5114865;28;20058;-63
2023/07/22 02:43:54;;;;;;;10.32;5.00;;;;;;;17.98;49.60;101042.06;5113624;28;20521;-63
2023/07/22 02:46:22;;;;;;;11.45;4.72;;;;;;;17.85;49.90;101046.06;5083101;28;20052;-63
2023/07/22 02:48:49;;;;;;;8.77;5.32;;;;;;;17.74;50.21;101042.97;5089806;28;20051;-63
2023/07/22 02:51:17;;;;;;;8.52;4.50;;;;;;;18.08;49.42;101051.91;5109948;28;20063;-63
2023/07/22 02:53:46;;;;;;;10.10;5.22;;;;;;;18.06;49.68;101048.66;5092029;28;20043;-65
2023/07/22 02:56:14;;;;;;;12.95;5.32;;;;;;;17.77;49.68;101052.59;5091590;28;20407;-63
2023/07/22 02:58:42;;;;;;;12.60;5.50;;;;;;;17.75;49.76;101046.56;5058433;28;20485;-63
2023/07/22 03:01:10;;;;;;;12.88;5.72;;;;;;;17.52;50.19;101053.84;5108313;28;20075;-63
2023/07/22 03:03:39;;;;;;;9.82;5.47;;;;;;;17.60;49.93;101061.25;5091757;28;20043;-64
2023/07/22 03:06:09;;;;;;;8.57;5.13;;;;;;;17.70;49.79;101064.34;5075960;28;20043;-62
2023/07/22 03:08:36;;;;;;;9.40;5.32;;;;;;;17.55;49.95;101056.72;5094561;28;20050;-64
2023/07/22 03:11:04;;;;;;;11.32;5.40;;;;;;;17.61;49.85;101060.88;5078215;28;20062;-64
2023/07/22 03:13:33;;;;;;;14.23;5.90;;;;;;;17.55;50.28;101061.50;5094298;28;20403;-63
2023/07/22 03:16:04;;;;;;;9.38;5.50;;;;;;;17.55;49.89;101062.31;5093688;28;20044;-63
2023/07/22 03:18:32;;;;;;;9.93;5.85;;;;;;;17.41;50.29;101061.00;5075205;28;20056;-64
2023/07/22 03:20:59;;;;;;;10.23;4.97;;;;;;;17.66;49.86;101059.84;5073571;28;20557;-62
2023/07/22 03:23:27;;;;;;;12.05;5.95;;;;;;;17.57;50.51;101062.75;5094918;28;20047;-63
2023/07/22 03:25:54;;;;;;;11.80;6.30;;;;;;;17.48;50.54;101061.28;5095622;28;20048;-60
2023/07/22 03:28:21;;;;;;;12.15;5.72;;;;;;;17.28;50.92;101056.63;5069424;28;20088;-61
2023/07/22 03:30:49;;;;;;;11.00;5.25;;;;;;;17.39;51.07;101066.13;5063686;28;20067;-61
2023/07/22 03:33:16;;;;;;;10.60;6.15;;;;;;;17.53;50.89;101066.59;5113695;28;20051;-60
2023/07/22 03:35:43;;;;;;;12.48;5.93;;;;;;;17.44;50.89;101069.47;5113877;28;20044;-60
2023/07/22 03:38:11;;;;;;;10.85;6.28;;;;;;;17.36;51.38;101073.22;5112688;28;20509;-60
2023/07/22 03:40:38;;;;;;;10.50;5.75;;;;;;;17.34;51.62;101074.72;5112726;28;20040;-60
2023/07/22 03:43:05;;;;;;;10.63;5.70;;;;;;;17.25;51.71;101080.41;5112490;28;20052;-61
2023/07/22 03:45:33;;;;;;;11.68;6.13;;;;;;;17.36;51.47;101076.00;5077966;28;20527;-61
2023/07/22 03:48:00;;;;;;;10.25;5.70;;;;;;;17.35;51.56;101067.97;5095592;28;20054;-61
2023/07/22 03:50:28;;;;;;;14.18;6.55;;;;;;;17.23;51.57;101073.56;5110195;28;20052;-61
2023/07/22 03:52:56;;;;;;;9.93;6.13;;;;;;;17.20;51.79;101072.31;5108274;28;20039;-64
2023/07/22 03:55:23;;;;;;;13.23;6.32;;;;;;;17.10;51.92;101075.56;5110598;28;20402;-64
2023/07/22 03:57:51;;;;;;;11.02;6.50;;;;;;;17.06;52.01;101069.06;5108878;28;20773;-62
2023/07/22 04:00:21;;;;;;;9.82;6.25;;;;;;;17.03;51.85;101061.41;5109918;28;20059;-61
2023/07/22 04:02:48;;;;;;;;;;;;;;;17.00;52.11;101061.28;5104972;28;20055;-65
2023/07/22 04:05:16;;;;;;;9.88;6.03;;;;;;;16.88;52.79;101071.25;5087688;28;20601;-64
2023/07/22 04:07:44;;;;;;;11.68;6.07;;;;;;;16.82;52.75;101066.28;5106236;28;20066;-63
2023/07/22 04:10:12;;;;;;;14.30;6.35;;;;;;;16.98;52.61;101071.97;5108053;28;20525;-60
2023/07/22 04:12:39;;;;;;;12.43;6.15;;;;;;;17.04;52.27;101073.34;5105962;28;20044;-60
2023/07/22 04:15:09;;;;;;;13.13;6.50;;;;;;;17.02;52.50;101061.72;5110522;28;20395;-61
2023/07/22 04:17:37;;;;;;;12.02;6.30;;;;;;;16.94;52.59;101068.25;5074471;28;20301;-61
2023/07/22 04:20:07;;;;;;;12.73;6.22;;;;;;;16.96;52.63;101066.75;5086801;28;20040;-61
2023/07/22 04:22:34;;;;;;;;;;;;;;;16.79;52.80;101069.72;5112515;28;20433;-60
2023/07/22 04:25:02;;;;;;;9.52;5.93;;;;;;;16.81;52.96;101068.22;5110465;28;19920;-60
2023/07/22 04:27:30;;;;;;;18.40;6.68;;;;;;;17.01;52.70;101069.28;5096395;28;20051;-61
2023/07/22 04:29:58;;;;;;;10.00;6.10;;;;;;;17.17;52.41;101073.00;5094882;28;20051;-61
2023/07/22 04:32:25;;;;;;;12.65;6.65;;;;;;;16.89;52.87;101060.94;5087612;28;20062;-61
2023/07/22 04:34:53;;;;;;;10.80;6.30;;;;;;;17.09;52.13;101062.78;5108201;28;20047;-62
2023/07/22 04:37:20;;;;;;;15.05;7.00;;;;;;;17.09;52.25;101060.00;5111591;28;20054;-62
2023/07/22 04:39:49;;;;;;;10.05;6.20;;;;;;;17.03;52.44;101066.97;5111603;28;20064;-63
2023/07/22 04:42:16;;;;;;;11.23;6.63;;;;;;;17.28;52.04;101076.09;5095684;28;20439;-62
2023/07/22 04:44:44;;;;;;;12.02;6.68;;;;;;;17.38;51.56;101070.88;5111672;28;20065;-63
2023/07/22 04:47:11;;;;;;;12.45;7.15;;;;;;;17.28;51.73;101078.88;5091835;28;20143;-63
2023/07/22 04:49:39;;;;;;;10.82;6.28;;;;;;;17.24;51.83;101083.56;5107077;28;20111;-65
2023/07/22 04:52:06;;;;;;;11.20;6.63;;;;;;;17.05;52.07;101081.34;5111803;28;20050;-61
2023/07/22 04:54:34;;;;;;;10.70;6.53;;;;;;;17.16;52.07;101082.50;5094954;28;20459;-62
2023/07/22 04:57:02;;;;;;;9.65;6.30;;;;;;;17.19;52.16;101083.78;5108382;28;20051;-62
2023/07/22 04:59:30;;;;;;;10.68;6.90;;;;;;;16.84;52.94;101081.44;5091018;28;20063;-63
2023/07/22 05:01:57;;;;;;;10.85;7.32;;;;;;;16.91;53.09;101080.06;5112045;28;20054;-63
2023/07/22 05:04:24;;;;;;;12.27;6.30;;;;;;;16.99;52.74;101081.91;5090079;28;20040;-64
2023/07/22 05:06:52;;;;;;;11.05;6.40;;;;;;;17.06;52.71;101077.41;5109932;27;20046;-61
2023/07/22 05:09:19;;;;;;;11.55;6.43;;;;;;;16.83;53.11;101082.63;5091552;28;20063;-61
2023/07/22 05:11:47;;;;;;;9.77;6.55;;;;;;;16.63;54.50;101074.38;5109098;27;20036;-62
2023/07/22 05:14:14;;;;;;;12.45;6.53;;;;;;;16.67;54.27;101081.66;5116310;28;20051;-61
2023/07/22 05:16:41;;;;;;;13.95;6.72;;;;;;;16.64;54.36;101081.53;5094796;28;20059;-67
2023/07/22 05:19:09;;;;;;;12.02;5.97;;;;;;;16.53;54.91;101072.81;5119672;27;20062;-61
2023/07/22 05:21:36;;;;;;;13.57;6.70;;;;;;;16.55;54.98;101075.25;5123522;27;20048;-61
2023/07/22 05:24:04;;;;;;;9.50;5.75;;;;;;;16.54;54.94;101068.09;5115968;28;20051;-61
2023/07/22 05:26:31;;;;;;;14.07;6.32;;;;;;;16.76;54.68;101085.16;5115809;28;20529;-61
2023/07/22 05:28:58;;;;;;;11.63;6.50;;;;;;;16.95;54.23;101079.03;5109717;27;20475;-62
2023/07/22 05:31:26;;;;;;;11.10;6.05;;;;;;;17.16;53.67;101074.16;5122770;27;20043;-61
2023/07/22 05:33:53;;;;;;;10.73;6.07;;;;;;;17.21;53.85;101079.47;5047748;28;20072;-63
2023/07/22 05:36:21;;;;;;;12.18;6.25;;;;;;;17.35;53.55;101081.91;5075385;27;20048;-64
2023/07/22 05:38:48;;;;;;;11.35;6.38;;;;;;;17.38;53.79;101078.44;5090187;28;20638;-62
2023/07/22 05:41:16;;;;;;;18.35;6.97;;;;;;;17.42;53.75;101073.75;5113861;28;20051;-63
2023/07/22 05:43:43;;;;;;;16.33;6.35;;;;;;;17.25;53.64;101068.47;5076304;28;20053;-60
2023/07/22 05:46:11;;;;;;;10.85;6.25;;;;;;;17.32;54.09;101074.25;5088270;28;20059;-61
2023/07/22 05:48:39;;;;;;;10.73;6.63;;;;;;;17.42;53.63;101077.38;5098667;28;20039;-61
2023/07/22 05:51:06;;;;;;;9.77;6.18;;;;;;;17.57;53.25;101073.88;5093904;28;20060;-61
2023/07/22 05:53:35;;;;;;;9.95;5.90;;;;;;;17.75;53.28;101071.63;5107914;28;20048;-61
2023/07/22 05:56:05;;;;;;;11.85;6.30;;;;;;;17.51;53.29;101074.47;5071894;28;20048;-63
2023/07/22 05:58:32;;;;;;;14.73;6.60;;;;;;;17.91;53.16;101067.75;5110055;28;20051;-63
2023/07/22 06:01:00;;;;;;;11.60;5.60;;;;;;;17.90;53.11;101068.91;5088143;28;20047;-64
2023/07/22 06:03:27;;;;;;;13.82;5.85;;;;;;;18.05;52.28;101072.94;5108142;28;20048;-63
2023/07/22 06:05:55;;;;;;;13.85;5.90;;;;;;;17.94;52.93;101069.00;5098232;28;20052;-63
2023/07/22 06:08:22;;;;;;;9.73;5.35;;;;;;;18.16;52.63;101068.47;5105472;28;20052;-64
2023/07/22 06:10:50;;;;;;;10.40;6.20;;;;;;;17.83;53.88;101074.31;5087422;28;20067;-61
2023/07/22 06:13:17;;;;;;;13.85;5.88;;;;;;;17.90;53.55;101073.69;5111970;28;20055;-61
2023/07/22 06:15:45;;;;;;;11.70;5.63;;;;;;;18.20;53.38;101072.16;5112380;28;20047;-61
2023/07/22 06:18:13;;;;;;;13.95;5.95;;;;;;;18.36;53.16;101078.59;5124425;27;20055;-61
2023/07/22 06:20:40;;;;;;;10.63;6.00;;;;;;;18.75;52.36;101069.31;5112422;27;20051;-60
2023/07/22 06:23:07;;;;;;;14.07;6.40;;;;;;;18.92;51.84;101071.75;5088422;28;20062;-60
2023/07/22 06:25:34;;;;;;;13.43;6.25;;;;;;;18.95;52.28;101073.81;5112722;27;20055;-60
2023/07/22 06:28:02;;;;;;;12.35;6.50;;;;;;;19.35;51.21;101068.03;5122277;27;20504;-62
2023/07/22 06:30:29;;;;;;;10.15;6.43;;;;;;;19.20;53.21;101073.59;5119016;27;20042;-60
2023/07/22 06:32:56;;;;;;;13.02;6.72;;;;;;;19.16;53.48;101075.50;5135383;27;20054;-61
2023/07/22 06:35:24;;;;;;;12.63;7.00;;;;;;;18.96;55.58;101075.44;5105280;27;20048;-61
2023/07/22 06:37:51;;;;;;;11.90;7.30;;;;;;;18.75;56.08;101074.06;5109283;28;20505;-61
2023/07/22 06:40:19;;;;;;;12.10;6.72;;;;;;;18.84;56.67;101069.94;5111330;28;20423;-60
2023/07/22 06:42:46;;;;;;;12.52;7.53;;;;;;;19.02;56.01;101070.41;5112355;28;20052;-61
2023/07/22 06:45:13;;;;;;;10.88;6.65;;;;;;;18.35;57.92;101074.19;5112788;28;20043;-61
2023/07/22 06:47:40;;;;;;;13.20;7.55;;;;;;;18.25;57.87;101073.88;5110585;28;20048;-61
2023/07/22 06:50:08;;;;;;;14.93;6.90;;;;;;;18.42;57.84;101068.00;5093688;28;20056;-60
2023/07/22 06:52:35;;;;;;;13.05;7.30;;;;;;;18.81;57.32;101069.84;5112276;28;20510;-61
2023/07/22 06:55:04;;;;;;;11.20;6.60;;;;;;;18.74;58.51;101067.69;5111837;28;20054;-61
2023/07/22 06:57:32;;;;;;;13.82;7.05;;;;;;;18.81;57.74;101072.66;5093024;28;20406;-61
2023/07/22 06:59:59;;;;;;;13.57;7.53;;;;;;;18.77;58.50;101074.53;5110628;28;20055;-61
2023/07/22 07:02:27;;;;;;;11.15;7.53;;;;;;;19.01;57.89;101071.56;5111987;28;20157;-60
2023/07/22 07:04:54;;;;;;;15.48;7.45;;;;;;;19.34;57.46;101073.97;5111829;28;20490;-61
2023/07/22 07:07:21;;;;;;;14.60;7.32;;;;;;;19.04;58.12;101076.41;5111769;28;20044;-62
2023/07/22 07:09:50;;;;;;;12.77;6.80;;;;;;;19.12;57.91;101074.59;5113091;28;20055;-59
2023/07/22 07:12:17;;;;;;;11.95;6.53;;;;;;;19.17;56.81;101068.75;5112562;28;20062;-60
2023/07/22 07:14:45;;;;;;;8.90;6.10;;;;;;;19.30;56.54;101071.09;5075081;28;20043;-61
2023/07/22 07:17:12;;;;;;;11.73;6.10;;;;;;;19.52;55.13;101064.00;5112676;28;20047;-61
2023/07/22 07:19:39;;;;;;;14.23;6.63;;;;;;;18.88;57.52;101065.25;5112115;28;20051;-60
2023/07/22 07:22:07;;;;;;;11.52;6.38;;;;;;;19.36;56.15;101069.66;5111872;28;20039;-61
2023/07/22 07:24:34;;;;;;;10.55;6.55;;;;;;;19.39;56.03;101062.50;5112033;28;20046;-60
2023/07/22 07:27:02;;;;;;;11.32;6.80;;;;;;;19.57;55.52;101069.31;5110936;28;20044;-61
2023/07/22 07:29:29;;;;;;;15.50;6.88;;;;;;;19.79;55.52;101066.63;5111610;28;20047;-60
2023/07/22 07:31:59;;;;;;;;;;;;;;;19.61;54.66;101073.00;5112941;28;20050;-60
2023/07/22 07:34:26;;;;;;;13.07;6.53;;;;;;;19.50;54.80;101069.16;5111093;28;19919;-61
2023/07/22 07:36:54;;;;;;;10.50;6.35;;;;;;;19.52;54.80;101067.63;5110053;28;20043;-62
2023/07/22 07:39:22;;;;;;;11.85;6.25;;;;;;;19.80;54.54;101064.63;5110052;28;20056;-62
2023/07/22 07:41:50;;;;;;;9.68;6.10;;;;;;;20.04;53.88;101073.56;5112185;28;20056;-63
2023/07/22 07:44:17;;;;;;;13.48;6.22;;;;;;;20.29;53.22;101076.88;5111467;28;20059;-61
2023/07/22 07:46:44;;;;;;;12.48;6.72;;;;;;;20.51;52.21;101069.69;5109653;28;20811;-62
2023/07/22 07:49:12;;;;;;;9.52;5.85;;;;;;;20.66;52.05;101072.38;5097821;28;20047;-61
2023/07/22 07:51:41;;;;;;;14.15;6.65;;;;;;;20.46;52.24;101079.22;5100935;28;20044;-61
2023/07/22 07:54:09;;;;;;;15.95;7.28;;;;;;;20.44;52.29;101070.38;5115414;28;20035;-60
2023/07/22 07:56:36;;;;;;;11.00;6.38;;;;;;;20.64;51.63;101076.75;5110603;28;20040;-61
2023/07/22 07:59:05;;;;;;;12.75;6.43;;;;;;;20.91;50.88;101079.22;5094118;28;20489;-60
2023/07/22 08:01:33;;;;;;;11.20;6.47;;;;;;;20.73;50.38;101075.28;5081643;28;20689;-61
2023/07/22 08:04:00;;;;;;;8.52;6.18;;;;;;;20.48;50.57;101076.84;5114236;28;20055;-61
2023/07/22 08:06:27;;;;;;;10.75;6.15;;;;;;;20.55;50.93;101078.97;5117547;27;20051;-62
2023/07/22 08:08:55;;;;;;;12.23;6.63;;;;;;;20.74;50.91;101076.13;5097927;28;20050;-61
2023/07/22 08:11:23;;;;;;;8.82;5.95;;;;;;;20.75;50.80;101069.31;5115489;28;20052;-61
2023/07/22 08:13:51;;;;;;;11.25;6.45;;;;;;;21.04;50.42;101068.66;5115092;28;20051;-62
2023/07/22 08:16:19;;;;;;;10.68;6.43;;;;;;;21.62;49.20;101069.16;5115278;28;20084;-61
2023/07/22 08:18:47;;;;;;;14.38;6.65;;;;;;;21.63;47.99;101060.38;5114757;28;20048;-62
2023/07/22 08:21:14;;;;;;;10.55;5.97;;;;;;;21.74;47.34;101055.69;5097674;28;20050;-61
2023/07/22 08:23:45;;;;;;;10.55;5.95;;;;;;;21.75;47.08;101054.50;5114029;28;20055;-62
2023/07/22 08:26:13;;;;;;;8.73;5.43;;;;;;;22.03;45.99;101057.72;5114637;28;20471;-61
2023/07/22 08:28:40;;;;;;;9.77;5.72;;;;;;;21.96;46.05;101052.00;5115226;28;20051;-61
2023/07/22 08:31:08;;;;;;;8.27;5.30;;;;;;;21.98;45.54;101055.25;5114739;28;20055;-61
2023/07/22 08:33:35;;;;;;;9.27;6.03;;;;;;;22.07;45.39;101046.53;5114819;28;20086;-61
2023/07/22 08:36:08;;;;;;;11.60;5.55;;;;;;;21.88;45.16;101060.72;5115428;28;20047;-61
2023/07/22 08:38:36;;;;;;;9.65;5.50;;;;;;;21.85;45.34;101045.47;5112757;28;20044;-61
2023/07/22 08:41:04;;;;;;;9.07;5.55;;;;;;;21.88;45.29;101061.50;5093534;28;20054;-61
2023/07/22 08:43:34;;;;;;;9.82;6.00;;;;;;;21.98;44.88;101057.25;5104582;28;20055;-61
2023/07/22 08:46:02;;;;;;;12.52;5.32;;;;;;;21.91;45.17;101055.16;5098256;28;20051;-61
2023/07/22 08:48:34;;;;;;;9.82;5.90;;;;;;;21.94;45.04;101053.56;5109449;28;20062;-61
2023/07/22 08:51:06;;;;;;;8.70;5.82;;;;;;;21.98;44.84;101057.25;5110920;28;20047;-60
2023/07/22 08:53:33;;;;;;;10.75;5.57;;;;;;;21.91;44.85;101054.34;5116644;28;20051;-60
2023/07/22 08:56:01;;;;;;;8.77;5.53;;;;;;;22.01;45.15;101053.66;5115811;28;20063;-61
2023/07/22 08:58:29;;;;;;;8.90;5.63;;;;;;;21.97;44.88;101047.19;5097637;28;20467;-61
2023/07/22 09:00:57;;;;;;;12.80;8.70;;;;;;;22.11;45.11;101055.78;5097719;28;20047;-63
2023/07/22 09:03:24;;;;;;;11.38;7.28;;;;;;;22.09;44.80;101052.53;5097787;28;20560;-61
2023/07/22 09:05:52;;;;;;;11.48;6.32;;;;;;;21.95;45.21;101047.56;5100997;28;20066;-61
2023/07/22 09:08:20;;;;;;;11.95;5.18;;;;;;;22.37;44.00;101035.25;5115012;28;20055;-61
2023/07/22 09:10:48;;;;;;;10.30;4.93;;;;;;;22.62;42.48;101034.31;5116463;28;20054;-61
2023/07/22 09:13:18;;;;;;;10.00;5.75;;;;;;;22.29;43.04;101034.34;5115456;28;20059;-62
2023/07/22 09:15:47;;;;;;;8.45;5.10;;;;;;;22.41;42.76;101036.06;5116399;28;20063;-62
2023/07/22 09:18:15;;;;;;;10.30;4.82;;;;;;;22.54;41.79;101032.66;5116598;28;20062;-61
2023/07/22 09:20:43;;;;;;;8.77;4.90;;;;;;;22.37;42.57;101024.81;5116055;28;20043;-62
2023/07/22 09:23:11;;;;;;;10.73;4.90;;;;;;;22.48;42.34;101024.91;5116147;28;20054;-61
2023/07/22 09:25:42;;;;;;;9.68;4.85;;;;;;;22.38;42.55;101020.00;5098516;28;20062;-61
2023/07/22 09:28:09;;;;;;;8.55;4.57;;;;;;;22.58;42.44;101027.84;5097556;28;20055;-60
2023/07/22 09:30:39;;;;;;;9.63;4.65;;;;;;;22.42;42.72;101027.25;5096944;28;20055;-60
2023/07/22 09:33:20;;;;;;;8.68;4.57;;;;;;;22.40;42.60;101023.22;5089677;28;20462;-61
2023/07/22 09:35:47;;;;;;;;;;;;;;;22.44;42.68;101018.47;5116507;28;20055;-61
2023/07/22 09:38:15;;;;;;;7.75;5.43;;;;;;;22.72;42.46;101019.56;5107884;28;19919;-62
2023/07/22 09:40:43;;;;;;;8.13;5.25;;;;;;;22.89;41.56;101015.28;5088598;28;20067;-61
2023/07/22 09:43:14;;;;;;;9.68;5.07;;;;;;;22.94;41.48;101006.50;5090114;28;20049;-60
2023/07/22 09:45:41;;;;;;;9.30;5.20;;;;;;;22.70;42.05;101013.50;5069188;28;20082;-62
2023/07/22 09:48:09;;;;;;;12.07;4.80;;;;;;;22.77;41.97;101002.34;5090188;28;20043;-60
2023/07/22 09:50:37;;;;;;;10.07;4.85;;;;;;;22.69;41.39;101005.47;5074471;28;20056;-62
2023/07/22 09:53:05;;;;;;;9.23;4.68;;;;;;;22.65;41.89;101010.28;5088483;28;20053;-62
2023/07/22 09:55:33;;;;;;;6.95;4.30;;;;;;;22.08;42.48;100998.44;5089163;28;20058;-61
2023/07/22 09:58:10;;;;;;;6.95;4.25;;;;;;;22.14;42.13;101002.50;5090447;28;20059;-62
2023/07/22 10:00:38;;;;;;;7.10;4.28;;;;;;;22.23;41.70;101005.00;5089278;28;20051;-61
2023/07/22 10:03:10;;;;;;;8.15;4.20;;;;;;;22.26;41.57;100999.44;5071341;28;20052;-62
2023/07/22 10:05:41;;;;;;;6.88;4.28;;;;;;;22.29;41.72;101001.50;5088206;28;20490;-59
2023/07/22 10:08:10;;;;;;;10.20;4.60;;;;;;;22.35;41.47;101002.72;5089184;28;20040;-59
2023/07/22 10:10:38;;;;;;;9.70;4.57;;;;;;;22.45;41.58;100992.00;5071814;28;20056;-60
2023/07/22 10:13:06;;;;;;;8.13;4.55;;;;;;;22.56;41.52;101006.97;5089569;28;20035;-60
2023/07/22 10:15:34;;;;;;;8.13;4.60;;;;;;;22.79;40.89;101004.75;5086224;28;20067;-60
2023/07/22 10:18:05;;;;;;;9.05;4.95;;;;;;;22.69;40.70;101013.91;5090169;28;20058;-61
2023/07/22 10:20:36;;;;;;;8.02;4.50;;;;;;;22.05;41.53;101006.84;5082318;28;20048;-61
2023/07/22 10:23:04;;;;;;;8.32;4.72;;;;;;;21.52;43.00;101008.13;5067729;28;20051;-60
2023/07/22 10:25:32;;;;;;;8.13;5.28;;;;;;;21.90;42.95;101021.84;5089507;28;20043;-61
2023/07/22 10:28:00;;;;;;;9.13;4.65;;;;;;;22.04;42.03;101005.19;5089925;28;20048;-60
2023/07/22 10:30:27;;;;;;;7.55;4.68;;;;;;;22.15;42.08;100997.72;5087384;28;20143;-58
2023/07/22 10:32:55;;;;;;;8.77;5.05;;;;;;;22.26;41.90;100999.44;5091500;28;20051;-60
2023/07/22 10:35:31;;;;;;;10.35;4.53;;;;;;;22.28;41.62;100994.25;5086230;28;20075;-61
2023/07/22 10:38:09;;;;;;;9.07;4.80;;;;;;;22.64;40.88;100987.00;5085375;28;20044;-61
2023/07/22 10:40:53;;;;;;;10.43;4.70;;;;;;;22.44;40.92;100996.00;5106536;28;20062;-62
2023/07/22 10:43:39;;;;;;;6.13;4.53;;;;;;;22.39;41.02;101002.78;5108243;27;20047;-60
2023/07/22 10:46:12;;;;;;;7.40;4.15;;;;;;;22.78;40.10;100983.50;5107897;28;20586;-65
2023/07/22 10:48:41;;;;;;;7.63;4.68;;;;;;;23.14;39.36;100988.16;5091308;28;20047;-60
2023/07/22 10:51:17;;;;;;;7.70;4.53;;;;;;;23.09;39.67;100977.28;5094503;28;20052;-60
2023/07/22 10:53:46;;;;;;;6.18;3.92;;;;;;;22.55;40.27;100989.31;5075370;28;20063;-60
2023/07/22 10:56:21;;;;;;;8.37;4.67;;;;;;;22.96;39.94;100976.81;5094704;28;20051;-60
2023/07/22 10:58:52;;;;;;;11.55;4.20;;;;;;;22.72;39.79;100980.22;5088643;28;20849;-60
2023/07/22 11:01:26;;;;;;;7.00;3.75;;;;;;;22.46;39.97;100976.75;5107247;28;20054;-59
2023/07/22 11:04:16;;;;;;;7.28;3.80;;;;;;;22.98;39.13;100979.25;5086073;28;20051;-60
2023/07/22 11:06:44;;;;;;;7.65;4.03;;;;;;;23.17;38.68;100973.34;5086855;28;20077;-61
2023/07/22 11:09:35;;;;;;;6.35;3.90;;;;;;;23.01;38.04;100972.84;5111224;28;20043;-61
2023/07/22 11:12:10;;;;;;;6.35;4.03;;;;;;;23.18;38.33;100960.91;5097002;28;20448;-61
2023/07/22 11:14:39;;;;;;;6.47;3.55;;;;;;;23.36;37.55;100956.22;5106178;28;20059;-60
2023/07/22 11:17:08;;;;;;;6.50;3.53;;;;;;;23.51;37.46;100957.91;5105151;28;20043;-60
2023/07/22 11:19:35;;;;;;;7.88;3.67;;;;;;;23.59;37.24;100951.09;5106566;28;20055;-60
2023/07/22 11:22:03;;;;;;;9.50;4.00;;;;;;;23.63;37.08;100949.09;5105162;28;21745;-61
2023/07/22 11:24:32;;;;;;;7.78;4.35;;;;;;;23.80;36.89;100951.16;5101263;28;20055;-61
2023/07/22 11:27:02;;;;;;;7.47;3.38;;;;;;;23.82;36.83;100943.13;5109355;28;20652;-61